Time;durP1;ratioP1;P1;durP2;ratioP2;P2;SDS_P1;SDS_P2;PMS_P1;PMS_P2;Temp;Humidity;BMP_temperature;BMP_pressure;BME280_temperature;BME280_humidity;BME280_pressure;Samples;Min_cycle;Max_cycle;Signal;HPM_P1;HPM_P2
2023/01/29 14:57:56;;;;;;;;;;;;;;;;;;6120940;22;92495;-41
2023/01/29 15:03:48;;;;;;;;;;;1.10;80.70;;;;;;5063111;27;80554;-38
2023/01/29 15:06:26;;;;;;;;;;;0.80;81.70;;;;;;4982125;28;87469;-38
2023/01/29 15:08:58;;;;;;;;;;;0.80;81.60;;;;;;5043314;28;80176;-38
2023/01/29 15:11:50;;;;;;;;;;;0.80;81.60;;;;;;5043682;28;81431;-38
2023/01/29 15:14:22;;;;;;;;;;;0.70;81.80;;;;;;5004538;28;80357;-38
2023/01/29 15:16:54;;;;;;;;;;;0.70;81.80;;;;;;5043709;28;82030;-38
2023/01/29 15:19:23;;;;;;;;;;;0.70;81.90;;;;;;5042355;28;83092;-38
2023/01/29 15:22:03;;;;;;;;;;;0.80;81.80;;;;;;5041348;28;82072;-38
2023/01/29 15:24:28;;;;;;;;;;;0.70;81.70;;;;;;5043970;28;80787;-38
2023/01/29 15:26:54;;;;;;;;;;;0.70;81.90;;;;;;5041538;28;80291;-38
2023/01/29 15:29:22;;;;;;;;;;;0.70;81.70;;;;;;5041494;28;80847;-38
2023/01/29 15:31:47;;;;;;;;;;;0.60;81.80;;;;;;5041043;28;81381;-38
2023/01/29 15:34:13;;;;;;;;;;;0.60;82.00;;;;;;5041472;28;80402;-38
2023/01/29 15:36:39;;;;;;;;;;;0.60;82.20;;;;;;5041479;28;80643;-38
2023/01/29 15:39:10;;;;;;;;;;;0.70;82.20;;;;;;5041388;28;82601;-38
2023/01/29 15:41:36;;;;;;;;;;;0.60;82.00;;;;;;5041965;28;80509;-38
2023/01/29 15:44:02;;;;;;;;;;;0.60;82.20;;;;;;5043399;28;80677;-38
2023/01/29 15:46:38;;;;;;;;;;;0.60;82.00;;;;;;5045758;28;81608;-38
2023/01/29 15:49:08;;;;;;;;;;;0.60;82.00;;;;;;5043206;28;81942;-38
2023/01/29 15:51:34;;;;;;;;;;;0.60;82.30;;;;;;5043288;28;81388;-38
2023/01/29 15:54:04;;;;;;;;;;;0.60;82.20;;;;;;5043272;28;80320;-38
2023/01/29 15:56:32;;;;;;;;;;;0.50;82.20;;;;;;5043324;28;80319;-38
2023/01/29 15:59:00;;;;;;;;;;;0.60;82.20;;;;;;5031535;28;81539;-38
2023/01/29 16:01:26;;;;;;;;;;;0.50;82.20;;;;;;5022494;28;80226;-38
2023/01/29 16:03:52;;;;;;;;;;;0.60;82.40;;;;;;5023106;28;80701;-38
2023/01/29 16:06:19;;;;;;;;;;;0.60;82.30;;;;;;5022828;28;81280;-38
2023/01/29 16:08:49;;;;;;;;;;;0.60;82.00;;;;;;5025683;28;80231;-38
2023/01/29 16:11:15;;;;;;;;;;;0.50;82.30;;;;;;5022922;28;81302;-38
2023/01/29 16:13:46;;;;;;;;;;;0.50;82.40;;;;;;5015839;28;80408;-38
2023/01/29 16:16:14;;;;;;;;;;;0.60;82.30;;;;;;5009076;28;80631;-38
2023/01/29 16:18:41;;;;;;;;;;;0.60;82.40;;;;;;5009656;28;81312;-38
2023/01/29 16:21:14;;;;;;;;;;;0.60;82.30;;;;;;5009113;28;80383;-38
2023/01/29 16:23:59;;;;;;;;;;;0.50;82.30;;;;;;5009389;28;80711;-38
2023/01/29 16:26:27;;;;;;;;;;;0.50;82.50;;;;;;5009435;28;81972;-38
2023/01/29 16:28:52;;;;;;;;;;;0.50;82.40;;;;;;5009137;28;80273;-38
2023/01/29 16:31:24;;;;;;;;;;;0.50;82.50;;;;;;5011921;28;80809;-38
2023/01/29 16:33:50;;;;;;;;;;;0.60;82.60;;;;;;5009244;28;80407;-38
2023/01/29 16:36:16;;;;;;;;;;;0.50;82.40;;;;;;5009204;28;80782;-38
2023/01/29 16:38:45;;;;;;;;;;;0.50;82.30;;;;;;5008560;28;82743;-38
2023/01/29 16:41:20;;;;;;;;;;;0.50;82.30;;;;;;5008876;28;80377;-38
2023/01/29 16:43:47;;;;;;;;;;;0.50;82.60;;;;;;5009078;28;80794;-38
2023/01/29 16:46:23;;;;;;;;;;;0.50;82.50;;;;;;5008701;28;82641;-38
2023/01/29 16:48:48;;;;;;;;;;;0.50;82.30;;;;;;5008949;28;80393;-38
2023/01/29 16:51:34;;;;;;;;;;;0.50;82.50;;;;;;5008831;28;80732;-38
2023/01/29 16:54:01;;;;;;;;;;;0.50;82.50;;;;;;5010646;28;81295;-38
2023/01/29 16:56:29;;;;;;;;;;;0.50;82.40;;;;;;5008906;28;80705;-38
2023/01/29 16:58:54;;;;;;;;;;;0.60;82.50;;;;;;5008393;28;81411;-38
2023/01/29 17:01:21;;;;;;;;;;;0.50;82.40;;;;;;5008156;28;80869;-38
2023/01/29 17:03:55;;;;;;;;;;;0.50;82.40;;;;;;5008598;28;80812;-38
2023/01/29 17:06:22;;;;;;;;;;;0.60;82.50;;;;;;5008550;28;82482;-38
2023/01/29 17:08:48;;;;;;;;;;;0.60;82.30;;;;;;5008801;28;80357;-38
2023/01/29 17:11:23;;;;;;;;;;;0.50;82.40;;;;;;5008609;28;80797;-38
2023/01/29 17:13:48;;;;;;;;;;;0.50;82.50;;;;;;5008308;28;81589;-38
2023/01/29 17:16:14;;;;;;;;;;;0.50;82.50;;;;;;5010859;28;80227;-38
2023/01/29 17:18:39;;;;;;;;;;;0.50;82.40;;;;;;5008453;28;81209;-38
2023/01/29 17:21:05;;;;;;;;;;;0.50;83.10;;;;;;5008526;28;80210;-38
2023/01/29 17:23:30;;;;;;;;;;;0.50;82.40;;;;;;5008323;28;81473;-38
2023/01/29 17:25:56;;;;;;;;;;;0.50;82.60;;;;;;5007328;28;81400;-38
2023/01/29 17:28:22;;;;;;;;;;;0.50;82.70;;;;;;5008323;28;80451;-38
2023/01/29 17:30:47;;;;;;;;;;;0.50;82.40;;;;;;5007677;28;82179;-38
2023/01/29 17:33:14;;;;;;;;;;;0.50;82.50;;;;;;5008324;28;80568;-38
2023/01/29 17:35:41;;;;;;;;;;;0.50;82.40;;;;;;5010710;28;80379;-38
2023/01/29 17:38:09;;;;;;;;;;;0.60;82.50;;;;;;5008147;28;81408;-38
2023/01/29 17:40:58;;;;;;;;;;;0.50;82.30;;;;;;5008220;28;80227;-38
2023/01/29 17:43:23;;;;;;;;;;;0.50;82.80;;;;;;4994226;28;81056;-38
2023/01/29 17:45:49;;;;;;;;;;;0.50;82.60;;;;;;5007954;28;80554;-38
2023/01/29 17:48:21;;;;;;;;;;;0.50;82.50;;;;;;5008020;28;80381;-38
2023/01/29 17:50:47;;;;;;;;;;;0.60;82.40;;;;;;5008090;28;80738;-38
2023/01/29 17:53:16;;;;;;;;;;;0.50;82.40;;;;;;5007918;28;81113;-38
2023/01/29 17:55:42;;;;;;;;;;;0.50;82.50;;;;;;5007553;28;80369;-38
2023/01/29 17:58:18;;;;;;;;;;;0.50;82.40;;;;;;5010299;28;80663;-38
2023/01/29 18:00:44;;;;;;;;;;;0.50;82.50;;;;;;5007535;28;80362;-38
2023/01/29 18:03:09;;;;;;;;;;;0.50;82.70;;;;;;5007554;28;80271;-38
2023/01/29 18:05:35;;;;;;;;;;;0.50;83.20;;;;;;5007818;28;81409;-38
2023/01/29 18:08:01;;;;;;;;;;;0.50;82.50;;;;;;5007875;28;80010;-38
2023/01/29 18:10:26;;;;;;;;;;;0.50;82.40;;;;;;5007639;28;82525;-38
2023/01/29 18:12:52;;;;;;;;;;;0.50;82.40;;;;;;5007709;28;81366;-38
2023/01/29 18:15:17;;;;;;;;;;;0.50;82.60;;;;;;5007521;28;80378;-38
2023/01/29 18:17:43;;;;;;;;;;;0.50;82.60;;;;;;5007797;28;80651;-38
2023/01/29 18:20:16;;;;;;;;;;;0.50;82.50;;;;;;5010038;28;80888;-38
2023/01/29 18:22:42;;;;;;;;;;;0.50;82.60;;;;;;5007376;28;82798;-38
2023/01/29 18:25:07;;;;;;;;;;;0.50;82.70;;;;;;5007211;28;80863;-38
2023/01/29 18:27:33;;;;;;;;;;;0.50;82.50;;;;;;5007497;28;80361;-38
2023/01/29 18:29:58;;;;;;;;;;;0.50;82.50;;;;;;5007434;28;80915;-38
2023/01/29 18:32:24;;;;;;;;;;;0.50;82.60;;;;;;5007452;28;81400;-38
2023/01/29 18:34:49;;;;;;;;;;;0.50;82.40;;;;;;5007431;28;80286;-38
2023/01/29 18:37:15;;;;;;;;;;;0.50;82.40;;;;;;5006990;28;80233;-38
2023/01/29 18:39:40;;;;;;;;;;;0.50;82.40;;;;;;5007042;28;81350;-38
2023/01/29 18:42:06;;;;;;;;;;;0.50;82.30;;;;;;5009912;28;80270;-38
2023/01/29 18:44:31;;;;;;;;;;;0.50;82.20;;;;;;5006992;28;81882;-38
2023/01/29 18:46:57;;;;;;;;;;;0.50;82.30;;;;;;5007473;28;80419;-38
2023/01/29 18:49:22;;;;;;;;;;;0.60;82.30;;;;;;5007381;28;80141;-38
2023/01/29 18:51:48;;;;;;;;;;;0.50;82.30;;;;;;5007232;28;81353;-38
2023/01/29 18:54:13;;;;;;;;;;;0.50;82.40;;;;;;5007172;28;80063;-38
2023/01/29 18:56:39;;;;;;;;;;;0.50;82.40;;;;;;5007005;28;80682;-38
2023/01/29 18:59:04;;;;;;;;;;;0.50;82.40;;;;;;5006952;28;80500;-38
2023/01/29 19:01:31;;;;;;;;;;;0.50;82.50;;;;;;5006584;28;80431;-38
2023/01/29 19:03:58;;;;;;;;;;;0.50;82.40;;;;;;5009663;28;80772;-38
2023/01/29 19:06:24;;;;;;;;;;;0.50;82.40;;;;;;5006908;28;80760;-38
2023/01/29 19:08:49;;;;;;;;;;;0.50;82.40;;;;;;5006970;28;80781;-38
2023/01/29 19:11:15;;;;;;;;;;;0.50;82.40;;;;;;5005601;28;82918;-38
2023/01/29 19:13:41;;;;;;;;;;;0.50;82.50;;;;;;5005933;28;81367;-38
2023/01/29 19:16:08;;;;;;;;;;;0.50;82.30;;;;;;5005583;28;82019;-38
2023/01/29 19:18:33;;;;;;;;;;;0.50;82.60;;;;;;5005582;28;82777;-38
2023/01/29 19:20:59;;;;;;;;;;;0.50;82.40;;;;;;5005071;28;83061;-38
2023/01/29 19:23:24;;;;;;;;;;;0.50;82.50;;;;;;5007968;28;84750;-38
2023/01/29 19:25:50;;;;;;;;;;;0.50;82.50;;;;;;5005248;28;81916;-38
2023/01/29 19:28:15;;;;;;;;;;;0.50;82.50;;;;;;5005504;28;82325;-38
2023/01/29 19:30:41;;;;;;;;;;;0.50;82.50;;;;;;5005362;28;82947;-38
2023/01/29 19:33:07;;;;;;;;;;;0.50;82.60;;;;;;5005586;28;82097;-38
2023/01/29 19:35:33;;;;;;;;;;;0.50;82.50;;;;;;5005595;28;82385;-38
2023/01/29 19:37:58;;;;;;;;;;;0.50;82.40;;;;;;5006020;28;82132;-38
2023/01/29 19:40:25;;;;;;;;;;;0.50;82.40;;;;;;5005221;28;82045;-38
2023/01/29 19:42:54;;;;;;;;;;;0.50;82.50;;;;;;5005441;28;82532;-38
2023/01/29 19:45:24;;;;;;;;;;;0.50;82.40;;;;;;5007010;28;84549;-38
2023/01/29 19:47:50;;;;;;;;;;;0.50;82.50;;;;;;5005300;28;83395;-38
2023/01/29 19:50:16;;;;;;;;;;;0.50;82.40;;;;;;5008465;28;82899;-38
2023/01/29 19:52:41;;;;;;;;;;;0.50;82.40;;;;;;5008410;28;82065;-38
2023/01/29 19:55:07;;;;;;;;;;;0.50;82.50;;;;;;5008442;28;83603;-38
2023/01/29 19:57:33;;;;;;;;;;;0.50;82.40;;;;;;5008691;28;82959;-38
2023/01/29 19:59:59;;;;;;;;;;;0.50;82.40;;;;;;5008853;28;81956;-38
2023/01/29 20:02:26;;;;;;;;;;;0.50;82.30;;;;;;5008352;28;82371;-38
2023/01/29 20:04:51;;;;;;;;;;;0.50;82.50;;;;;;5008287;28;82811;-38
2023/01/29 20:07:20;;;;;;;;;;;0.50;82.40;;;;;;5011221;28;82043;-38
2023/01/29 20:09:46;;;;;;;;;;;0.50;82.40;;;;;;5007211;28;83801;-38
2023/01/29 20:12:12;;;;;;;;;;;0.50;82.30;;;;;;5008494;28;82062;-38
2023/01/29 20:14:39;;;;;;;;;;;0.50;82.40;;;;;;5008660;28;81837;-38
2023/01/29 20:17:04;;;;;;;;;;;0.50;82.30;;;;;;5008256;28;84351;-38
2023/01/29 20:19:30;;;;;;;;;;;0.50;82.30;;;;;;5008668;28;82099;-38
2023/01/29 20:21:55;;;;;;;;;;;0.50;82.40;;;;;;5008330;28;82880;-38
2023/01/29 20:24:22;;;;;;;;;;;0.50;82.30;;;;;;5007974;28;82605;-38
2023/01/29 20:26:48;;;;;;;;;;;0.50;82.50;;;;;;5008483;28;81450;-38
2023/01/29 20:29:14;;;;;;;;;;;0.50;82.40;;;;;;5010924;28;81939;-38
2023/01/29 20:31:40;;;;;;;;;;;0.50;82.40;;;;;;5007957;28;81943;-38
2023/01/29 20:34:05;;;;;;;;;;;0.50;82.30;;;;;;5007596;28;83970;-38
2023/01/29 20:36:31;;;;;;;;;;;0.50;82.30;;;;;;5008144;28;82456;-38
2023/01/29 20:38:56;;;;;;;;;;;0.50;82.10;;;;;;5007696;28;82066;-38
2023/01/29 20:41:22;;;;;;;;;;;0.50;82.30;;;;;;5007977;28;82333;-38
2023/01/29 20:43:49;;;;;;;;;;;0.50;82.40;;;;;;5007991;28;82206;-38
2023/01/29 20:46:15;;;;;;;;;;;0.50;82.10;;;;;;5007680;28;82166;-38
2023/01/29 20:48:40;;;;;;;;;;;0.50;82.40;;;;;;5007797;28;83861;-38
2023/01/29 20:51:14;;;;;;;;;;;0.50;82.40;;;;;;5011080;28;82091;-38
2023/01/29 20:53:41;;;;;;;;;;;0.50;82.40;;;;;;5007480;28;81915;-38
2023/01/29 20:56:08;;;;;;;;;;;0.50;82.40;;;;;;5007326;28;84405;-38
2023/01/29 20:58:33;;;;;;;;;;;0.50;82.40;;;;;;5007014;28;83349;-38
2023/01/29 21:00:59;;;;;;;;;;;0.50;82.50;;;;;;5007541;28;83839;-38
2023/01/29 21:03:25;;;;;;;;;;;0.50;82.60;;;;;;5007045;28;82997;-38
2023/01/29 21:05:51;;;;;;;;;;;0.50;82.50;;;;;;5007528;28;82149;-38
2023/01/29 21:08:16;;;;;;;;;;;0.50;82.50;;;;;;5007389;28;82332;-38
2023/01/29 21:10:43;;;;;;;;;;;0.50;82.50;;;;;;5007293;28;83057;-38
2023/01/29 21:13:09;;;;;;;;;;;0.50;82.30;;;;;;5010160;28;81995;-38
2023/01/29 21:15:35;;;;;;;;;;;0.40;82.50;;;;;;5008066;28;81540;-38
2023/01/29 21:18:03;;;;;;;;;;;0.50;82.40;;;;;;5007520;28;82086;-38
2023/01/29 21:20:29;;;;;;;;;;;0.50;82.40;;;;;;5007577;28;82413;-38
2023/01/29 21:22:55;;;;;;;;;;;0.50;82.40;;;;;;5005971;28;85310;-38
2023/01/29 21:25:21;;;;;;;;;;;0.50;82.50;;;;;;5007326;28;82012;-38
2023/01/29 21:27:47;;;;;;;;;;;0.50;82.40;;;;;;5007326;28;82261;-38
2023/01/29 21:30:12;;;;;;;;;;;0.40;82.50;;;;;;5007015;28;83475;-38
2023/01/29 21:32:38;;;;;;;;;;;0.40;82.50;;;;;;5009841;28;82200;-38
2023/01/29 21:35:04;;;;;;;;;;;0.40;82.50;;;;;;5007151;28;83409;-38
2023/01/29 21:37:29;;;;;;;;;;;0.40;82.50;;;;;;5006962;28;82017;-38
2023/01/29 21:39:55;;;;;;;;;;;0.50;82.50;;;;;;5007573;28;83724;-38
2023/01/29 21:45:04;;;;;;;;;;;0.40;82.50;;;;;;5007147;28;82052;-38
2023/01/29 21:47:30;;;;;;;;;;;0.50;82.50;;;;;;5006564;28;82919;-38
2023/01/29 21:49:55;;;;;;;;;;;0.50;82.40;;;;;;5007023;28;82555;-38
2023/01/29 21:52:21;;;;;;;;;;;0.50;82.50;;;;;;5006830;28;82132;-38
2023/01/29 21:54:47;;;;;;;;;;;0.40;82.40;;;;;;5009380;28;82280;-38
2023/01/29 21:57:14;;;;;;;;;;;0.50;82.30;;;;;;5006855;28;82102;-38
2023/01/29 21:59:40;;;;;;;;;;;0.50;82.30;;;;;;5006463;28;83834;-38
2023/01/29 22:02:08;;;;;;;;;;;0.50;82.40;;;;;;5006032;28;82962;-38
2023/01/29 22:04:33;;;;;;;;;;;0.40;82.50;;;;;;5007272;28;81653;-38
2023/01/29 22:06:59;;;;;;;;;;;0.40;82.50;;;;;;5006465;28;81926;-38
2023/01/29 22:09:24;;;;;;;;;;;0.40;82.40;;;;;;5006632;28;83318;-38
2023/01/29 22:11:49;;;;;;;;;;;0.50;82.50;;;;;;5005507;28;83032;-38
2023/01/29 22:14:17;;;;;;;;;;;0.40;82.20;;;;;;5006510;28;83398;-38
2023/01/29 22:16:43;;;;;;;;;;;0.40;82.50;;;;;;5009015;28;82044;-38
2023/01/29 22:19:08;;;;;;;;;;;0.50;82.50;;;;;;5006237;28;83756;-38
2023/01/29 22:21:34;;;;;;;;;;;0.50;82.30;;;;;;5006056;28;83077;-38
2023/01/29 22:23:59;;;;;;;;;;;0.40;82.50;;;;;;5006486;28;82117;-38
2023/01/29 22:26:25;;;;;;;;;;;0.40;82.40;;;;;;5006600;28;82392;-38
2023/01/29 22:28:50;;;;;;;;;;;0.40;82.40;;;;;;5006767;28;82175;-38
2023/01/29 22:31:16;;;;;;;;;;;0.50;82.10;;;;;;5006456;28;81993;-38
2023/01/29 22:33:41;;;;;;;;;;;0.40;82.40;;;;;;5006509;28;82443;-38
2023/01/29 22:36:07;;;;;;;;;;;0.50;82.20;;;;;;5005355;28;84499;-38
2023/01/29 22:38:33;;;;;;;;;;;0.50;82.30;;;;;;5009051;28;82037;-38
2023/01/29 22:40:59;;;;;;;;;;;0.40;82.10;;;;;;5006065;28;83120;-38
2023/01/29 22:43:28;;;;;;;;;;;0.40;82.20;;;;;;5006220;28;81927;-38
2023/01/29 22:45:55;;;;;;;;;;;0.50;82.40;;;;;;5005943;28;83135;-38
2023/01/29 22:48:23;;;;;;;;;;;0.40;82.30;;;;;;5006023;28;82113;-38
2023/01/29 22:51:08;;;;;;;;;;;0.40;82.30;;;;;;5006101;28;82150;-38
2023/01/29 22:53:34;;;;;;;;;;;0.40;82.30;;;;;;5006562;28;81531;-38
2023/01/29 22:55:59;;;;;;;;;;;0.40;82.40;;;;;;5005899;28;82298;-38
2023/01/29 22:58:25;;;;;;;;;;;0.40;82.40;;;;;;5006123;28;81995;-38
2023/01/29 23:00:50;;;;;;;;;;;0.40;82.30;;;;;;5007735;28;82828;-38
2023/01/29 23:03:16;;;;;;;;;;;0.40;82.40;;;;;;5005269;28;82074;-38
2023/01/29 23:05:41;;;;;;;;;;;0.30;82.40;;;;;;5006062;28;82346;-38
2023/01/29 23:08:07;;;;;;;;;;;0.40;82.50;;;;;;5005701;28;83385;-38
2023/01/29 23:10:32;;;;;;;;;;;0.40;82.30;;;;;;5005525;28;82055;-38
2023/01/29 23:12:58;;;;;;;;;;;0.40;82.40;;;;;;5005906;28;82208;-38
2023/01/29 23:15:23;;;;;;;;;;;0.40;82.50;;;;;;5005592;28;82978;-38
2023/01/29 23:17:49;;;;;;;;;;;0.40;82.20;;;;;;5006198;28;81231;-38
2023/01/29 23:20:14;;;;;;;;;;;0.40;82.30;;;;;;5005578;28;82317;-38
2023/01/29 23:22:40;;;;;;;;;;;0.40;82.40;;;;;;5008262;28;83318;-38
2023/01/29 23:25:06;;;;;;;;;;;0.40;82.40;;;;;;5008397;28;82882;-38
2023/01/29 23:27:31;;;;;;;;;;;0.40;82.20;;;;;;5009125;28;82837;-38
2023/01/29 23:29:56;;;;;;;;;;;0.40;82.30;;;;;;5009412;28;81968;-38
2023/01/29 23:32:22;;;;;;;;;;;0.40;82.30;;;;;;5009265;28;82439;-38
2023/01/29 23:34:48;;;;;;;;;;;0.40;82.50;;;;;;5008784;28;84159;-38
2023/01/29 23:37:13;;;;;;;;;;;0.40;82.30;;;;;;5009333;28;82110;-38
2023/01/29 23:39:38;;;;;;;;;;;0.40;82.20;;;;;;5008882;28;82593;-38
2023/01/29 23:42:04;;;;;;;;;;;0.40;82.50;;;;;;5012038;28;82221;-38
2023/01/29 23:44:29;;;;;;;;;;;0.40;82.40;;;;;;5009020;28;81867;-38
2023/01/29 23:46:56;;;;;;;;;;;0.40;82.20;;;;;;5008336;28;84633;-38
2023/01/29 23:49:21;;;;;;;;;;;0.40;82.90;;;;;;5007857;28;83087;-38
2023/01/29 23:51:47;;;;;;;;;;;0.40;82.40;;;;;;5009072;28;83073;-38
2023/01/29 23:54:13;;;;;;;;;;;0.40;82.20;;;;;;5008697;28;82970;-38
2023/01/29 23:56:38;;;;;;;;;;;0.40;82.40;;;;;;5008820;28;81970;-38
2023/01/29 23:59:04;;;;;;;;;;;0.40;82.50;;;;;;5008320;28;82989;-38
